sensor_id;sensor_type;location;lat;lon;timestamp;temperature;humidity
65179;DHT22;51849;47.476;8.084;2022-11-14T00:00:41;6.10;88.20
65179;DHT22;51849;47.476;8.084;2022-11-14T00:03:10;6.00;88.20
65179;DHT22;51849;47.476;8.084;2022-11-14T00:05:38;6.00;88.10
65179;DHT22;51849;47.476;8.084;2022-11-14T00:08:16;5.90;88.30
65179;DHT22;51849;47.476;8.084;2022-11-14T00:10:44;5.80;88.30
65179;DHT22;51849;47.476;8.084;2022-11-14T00:13:11;5.80;88.30
65179;DHT22;51849;47.476;8.084;2022-11-14T00:15:38;5.70;88.20
65179;DHT22;51849;47.476;8.084;2022-11-14T00:18:03;5.60;88.30
65179;DHT22;51849;47.476;8.084;2022-11-14T00:20:29;5.60;88.90
65179;DHT22;51849;47.476;8.084;2022-11-14T00:22:56;5.50;89.30
65179;DHT22;51849;47.476;8.084;2022-11-14T00:25:24;5.40;89.40
65179;DHT22;51849;47.476;8.084;2022-11-14T00:27:49;5.40;89.70
65179;DHT22;51849;47.476;8.084;2022-11-14T00:30:20;5.50;90.30
65179;DHT22;51849;47.476;8.084;2022-11-14T00:32:45;5.50;90.20
65179;DHT22;51849;47.476;8.084;2022-11-14T00:35:11;5.60;90.70
65179;DHT22;51849;47.476;8.084;2022-11-14T00:37:37;5.60;90.50
65179;DHT22;51849;47.476;8.084;2022-11-14T00:40:02;5.70;90.10
65179;DHT22;51849;47.476;8.084;2022-11-14T00:42:28;5.70;90.40
65179;DHT22;51849;47.476;8.084;2022-11-14T00:44:54;5.70;90.70
65179;DHT22;51849;47.476;8.084;2022-11-14T00:47:19;5.70;90.60
65179;DHT22;51849;47.476;8.084;2022-11-14T00:49:47;5.70;90.30
65179;DHT22;51849;47.476;8.084;2022-11-14T00:52:18;5.70;89.90
65179;DHT22;51849;47.476;8.084;2022-11-14T00:54:43;5.70;90.30
65179;DHT22;51849;47.476;8.084;2022-11-14T00:57:11;5.70;90.60
65179;DHT22;51849;47.476;8.084;2022-11-14T00:59:37;5.80;90.60
65179;DHT22;51849;47.476;8.084;2022-11-14T01:02:10;5.70;90.70
65179;DHT22;51849;47.476;8.084;2022-11-14T01:04:35;5.70;90.80
65179;DHT22;51849;47.476;8.084;2022-11-14T01:07:03;5.70;90.80
65179;DHT22;51849;47.476;8.084;2022-11-14T01:09:29;5.70;90.60
65179;DHT22;51849;47.476;8.084;2022-11-14T01:11:57;5.70;90.60
65179;DHT22;51849;47.476;8.084;2022-11-14T01:14:23;5.60;90.60
65179;DHT22;51849;47.476;8.084;2022-11-14T01:16:51;5.60;90.90
65179;DHT22;51849;47.476;8.084;2022-11-14T01:19:19;5.70;91.10
65179;DHT22;51849;47.476;8.084;2022-11-14T01:21:47;5.60;90.80
65179;DHT22;51849;47.476;8.084;2022-11-14T01:24:14;5.70;91.30
65179;DHT22;51849;47.476;8.084;2022-11-14T01:26:43;5.70;91.10
65179;DHT22;51849;47.476;8.084;2022-11-14T01:29:09;5.70;91.30
65179;DHT22;51849;47.476;8.084;2022-11-14T01:31:37;5.70;91.40
65179;DHT22;51849;47.476;8.084;2022-11-14T01:34:05;5.70;91.30
65179;DHT22;51849;47.476;8.084;2022-11-14T01:36:30;5.70;91.00
65179;DHT22;51849;47.476;8.084;2022-11-14T01:38:58;5.80;90.60
65179;DHT22;51849;47.476;8.084;2022-11-14T01:41:24;5.70;90.80
65179;DHT22;51849;47.476;8.084;2022-11-14T01:43:50;5.70;90.90
65179;DHT22;51849;47.476;8.084;2022-11-14T01:46:21;5.70;90.40
65179;DHT22;51849;47.476;8.084;2022-11-14T01:49:01;5.60;90.70
65179;DHT22;51849;47.476;8.084;2022-11-14T01:54:26;5.60;91.40
65179;DHT22;51849;47.476;8.084;2022-11-14T01:56:56;5.50;91.50
65179;DHT22;51849;47.476;8.084;2022-11-14T01:59:28;5.50;91.10
65179;DHT22;51849;47.476;8.084;2022-11-14T02:01:59;5.50;91.30
65179;DHT22;51849;47.476;8.084;2022-11-14T02:04:31;5.50;91.40
65179;DHT22;51849;47.476;8.084;2022-11-14T02:07:05;5.50;92.10
65179;DHT22;51849;47.476;8.084;2022-11-14T02:09:36;5.60;92.70
65179;DHT22;51849;47.476;8.084;2022-11-14T02:12:06;5.60;92.80
65179;DHT22;51849;47.476;8.084;2022-11-14T02:14:36;5.60;92.30
65179;DHT22;51849;47.476;8.084;2022-11-14T02:17:09;5.60;92.30
65179;DHT22;51849;47.476;8.084;2022-11-14T02:19:43;5.60;92.30
65179;DHT22;51849;47.476;8.084;2022-11-14T02:22:12;5.60;92.30
65179;DHT22;51849;47.476;8.084;2022-11-14T02:24:38;5.60;92.40
65179;DHT22;51849;47.476;8.084;2022-11-14T02:27:07;5.60;92.80
65179;DHT22;51849;47.476;8.084;2022-11-14T02:29:34;5.70;92.70
65179;DHT22;51849;47.476;8.084;2022-11-14T02:32:00;5.70;92.80
65179;DHT22;51849;47.476;8.084;2022-11-14T02:34:29;5.80;92.90
65179;DHT22;51849;47.476;8.084;2022-11-14T02:36:57;5.90;92.80
65179;DHT22;51849;47.476;8.084;2022-11-14T02:39:25;5.90;92.60
65179;DHT22;51849;47.476;8.084;2022-11-14T02:41:53;5.90;92.40
65179;DHT22;51849;47.476;8.084;2022-11-14T02:44:19;6.00;92.70
65179;DHT22;51849;47.476;8.084;2022-11-14T02:46:45;6.00;92.60
65179;DHT22;51849;47.476;8.084;2022-11-14T02:49:10;6.00;92.20
65179;DHT22;51849;47.476;8.084;2022-11-14T02:51:36;6.10;92.30
65179;DHT22;51849;47.476;8.084;2022-11-14T02:54:04;6.10;92.20
65179;DHT22;51849;47.476;8.084;2022-11-14T02:56:30;6.10;92.00
65179;DHT22;51849;47.476;8.084;2022-11-14T02:58:55;6.20;91.90
65179;DHT22;51849;47.476;8.084;2022-11-14T03:01:21;6.20;91.70
65179;DHT22;51849;47.476;8.084;2022-11-14T03:03:49;6.30;91.50
65179;DHT22;51849;47.476;8.084;2022-11-14T03:06:17;6.30;91.20
65179;DHT22;51849;47.476;8.084;2022-11-14T03:08:43;6.30;91.40
65179;DHT22;51849;47.476;8.084;2022-11-14T03:11:09;6.30;91.60
65179;DHT22;51849;47.476;8.084;2022-11-14T03:13:35;6.30;91.70
65179;DHT22;51849;47.476;8.084;2022-11-14T03:16:06;6.30;91.40
65179;DHT22;51849;47.476;8.084;2022-11-14T03:18:34;6.40;91.20
65179;DHT22;51849;47.476;8.084;2022-11-14T03:21:09;6.40;91.00
65179;DHT22;51849;47.476;8.084;2022-11-14T03:23:39;6.40;90.60
65179;DHT22;51849;47.476;8.084;2022-11-14T03:26:07;6.40;90.60
65179;DHT22;51849;47.476;8.084;2022-11-14T03:28:34;6.50;90.80
65179;DHT22;51849;47.476;8.084;2022-11-14T03:31:06;6.50;90.40
65179;DHT22;51849;47.476;8.084;2022-11-14T03:33:33;6.50;90.60
65179;DHT22;51849;47.476;8.084;2022-11-14T03:36:02;6.60;90.30
65179;DHT22;51849;47.476;8.084;2022-11-14T03:38:28;6.60;90.00
65179;DHT22;51849;47.476;8.084;2022-11-14T03:40:56;6.60;89.80
65179;DHT22;51849;47.476;8.084;2022-11-14T03:43:22;6.70;89.90
65179;DHT22;51849;47.476;8.084;2022-11-14T03:45:48;6.60;89.80
65179;DHT22;51849;47.476;8.084;2022-11-14T03:48:14;6.70;89.80
65179;DHT22;51849;47.476;8.084;2022-11-14T03:50:40;6.70;89.80
65179;DHT22;51849;47.476;8.084;2022-11-14T03:53:11;6.70;89.70
65179;DHT22;51849;47.476;8.084;2022-11-14T03:55:36;6.70;89.50
65179;DHT22;51849;47.476;8.084;2022-11-14T03:58:03;6.70;89.70
65179;DHT22;51849;47.476;8.084;2022-11-14T04:00:29;6.70;89.70
65179;DHT22;51849;47.476;8.084;2022-11-14T04:02:55;6.70;89.40
65179;DHT22;51849;47.476;8.084;2022-11-14T04:05:21;6.70;89.50
65179;DHT22;51849;47.476;8.084;2022-11-14T04:07:47;6.70;89.60
65179;DHT22;51849;47.476;8.084;2022-11-14T04:10:13;6.80;88.90
65179;DHT22;51849;47.476;8.084;2022-11-14T04:12:38;6.70;88.90
65179;DHT22;51849;47.476;8.084;2022-11-14T04:15:06;6.70;89.10
65179;DHT22;51849;47.476;8.084;2022-11-14T04:17:32;6.70;89.20
65179;DHT22;51849;47.476;8.084;2022-11-14T04:20:00;6.70;89.30
65179;DHT22;51849;47.476;8.084;2022-11-14T04:22:26;6.70;89.00
65179;DHT22;51849;47.476;8.084;2022-11-14T04:24:51;6.70;89.40
65179;DHT22;51849;47.476;8.084;2022-11-14T04:27:17;6.70;89.30
65179;DHT22;51849;47.476;8.084;2022-11-14T04:29:43;6.60;89.40
65179;DHT22;51849;47.476;8.084;2022-11-14T04:32:08;6.70;89.60
65179;DHT22;51849;47.476;8.084;2022-11-14T04:34:37;6.70;89.40
65179;DHT22;51849;47.476;8.084;2022-11-14T04:37:03;6.70;89.60
65179;DHT22;51849;47.476;8.084;2022-11-14T04:39:31;6.70;89.30
65179;DHT22;51849;47.476;8.084;2022-11-14T04:41:59;6.70;89.10
65179;DHT22;51849;47.476;8.084;2022-11-14T04:44:30;6.70;89.10
65179;DHT22;51849;47.476;8.084;2022-11-14T04:46:56;6.80;89.20
65179;DHT22;51849;47.476;8.084;2022-11-14T04:49:21;6.80;88.60
65179;DHT22;51849;47.476;8.084;2022-11-14T04:51:47;6.80;88.80
65179;DHT22;51849;47.476;8.084;2022-11-14T04:54:13;6.80;88.90
65179;DHT22;51849;47.476;8.084;2022-11-14T04:56:39;6.80;88.90
65179;DHT22;51849;47.476;8.084;2022-11-14T04:59:05;6.80;88.80
65179;DHT22;51849;47.476;8.084;2022-11-14T05:01:33;6.90;88.10
65179;DHT22;51849;47.476;8.084;2022-11-14T05:03:58;6.90;88.00
65179;DHT22;51849;47.476;8.084;2022-11-14T05:06:26;6.90;87.90
65179;DHT22;51849;47.476;8.084;2022-11-14T05:08:54;6.90;88.10
65179;DHT22;51849;47.476;8.084;2022-11-14T05:11:20;7.00;87.90
65179;DHT22;51849;47.476;8.084;2022-11-14T05:13:46;6.90;87.90
65179;DHT22;51849;47.476;8.084;2022-11-14T05:16:11;7.00;88.20
65179;DHT22;51849;47.476;8.084;2022-11-14T05:18:37;7.00;88.00
65179;DHT22;51849;47.476;8.084;2022-11-14T05:21:06;7.00;87.90
65179;DHT22;51849;47.476;8.084;2022-11-14T05:23:31;7.00;87.60
65179;DHT22;51849;47.476;8.084;2022-11-14T05:26:09;7.00;88.00
65179;DHT22;51849;47.476;8.084;2022-11-14T05:28:36;7.00;88.20
65179;DHT22;51849;47.476;8.084;2022-11-14T05:31:05;7.00;88.10
65179;DHT22;51849;47.476;8.084;2022-11-14T05:33:32;7.00;88.30
65179;DHT22;51849;47.476;8.084;2022-11-14T05:36:06;7.00;88.20
65179;DHT22;51849;47.476;8.084;2022-11-14T05:38:39;7.00;88.50
65179;DHT22;51849;47.476;8.084;2022-11-14T05:41:05;7.00;88.20
65179;DHT22;51849;47.476;8.084;2022-11-14T05:43:37;7.00;88.40
65179;DHT22;51849;47.476;8.084;2022-11-14T05:46:12;7.00;88.60
65179;DHT22;51849;47.476;8.084;2022-11-14T05:48:43;7.00;88.90
65179;DHT22;51849;47.476;8.084;2022-11-14T05:51:11;7.00;89.50
65179;DHT22;51849;47.476;8.084;2022-11-14T05:53:40;7.00;88.50
65179;DHT22;51849;47.476;8.084;2022-11-14T05:56:08;7.00;88.40
65179;DHT22;51849;47.476;8.084;2022-11-14T05:58:37;6.90;89.00
65179;DHT22;51849;47.476;8.084;2022-11-14T06:01:10;6.90;89.40
65179;DHT22;51849;47.476;8.084;2022-11-14T06:03:41;6.90;89.70
65179;DHT22;51849;47.476;8.084;2022-11-14T06:06:08;6.90;89.80
65179;DHT22;51849;47.476;8.084;2022-11-14T06:08:43;6.90;89.60
65179;DHT22;51849;47.476;8.084;2022-11-14T06:11:12;6.90;90.00
65179;DHT22;51849;47.476;8.084;2022-11-14T06:13:39;6.90;90.20
65179;DHT22;51849;47.476;8.084;2022-11-14T06:16:06;6.90;90.10
65179;DHT22;51849;47.476;8.084;2022-11-14T06:18:52;6.90;90.30
65179;DHT22;51849;47.476;8.084;2022-11-14T06:21:24;6.90;90.30
65179;DHT22;51849;47.476;8.084;2022-11-14T06:23:50;7.00;89.70
65179;DHT22;51849;47.476;8.084;2022-11-14T06:26:23;7.00;89.80
65179;DHT22;51849;47.476;8.084;2022-11-14T06:29:01;7.00;89.90
65179;DHT22;51849;47.476;8.084;2022-11-14T06:31:27;7.00;90.10
65179;DHT22;51849;47.476;8.084;2022-11-14T06:33:53;7.00;90.20
65179;DHT22;51849;47.476;8.084;2022-11-14T06:36:21;7.00;90.30
65179;DHT22;51849;47.476;8.084;2022-11-14T06:38:47;7.00;90.50
65179;DHT22;51849;47.476;8.084;2022-11-14T06:41:13;7.00;90.40
65179;DHT22;51849;47.476;8.084;2022-11-14T06:43:41;7.00;90.10
65179;DHT22;51849;47.476;8.084;2022-11-14T06:46:09;7.00;90.40
65179;DHT22;51849;47.476;8.084;2022-11-14T06:48:37;7.00;90.40
65179;DHT22;51849;47.476;8.084;2022-11-14T06:51:10;7.00;90.40
65179;DHT22;51849;47.476;8.084;2022-11-14T06:53:39;7.00;90.40
65179;DHT22;51849;47.476;8.084;2022-11-14T06:58:39;6.90;91.10
65179;DHT22;51849;47.476;8.084;2022-11-14T07:03:37;6.90;91.50
65179;DHT22;51849;47.476;8.084;2022-11-14T07:06:03;7.00;91.30
65179;DHT22;51849;47.476;8.084;2022-11-14T07:08:29;7.00;91.10
65179;DHT22;51849;47.476;8.084;2022-11-14T07:11:03;7.00;91.40
65179;DHT22;51849;47.476;8.084;2022-11-14T07:13:30;7.00;91.60
65179;DHT22;51849;47.476;8.084;2022-11-14T07:15:57;7.00;92.00
65179;DHT22;51849;47.476;8.084;2022-11-14T07:18:23;7.00;92.40
65179;DHT22;51849;47.476;8.084;2022-11-14T07:20:48;7.10;92.70
65179;DHT22;51849;47.476;8.084;2022-11-14T07:23:14;7.20;91.70
65179;DHT22;51849;47.476;8.084;2022-11-14T07:25:44;7.10;91.80
65179;DHT22;51849;47.476;8.084;2022-11-14T07:28:12;7.00;92.00
65179;DHT22;51849;47.476;8.084;2022-11-14T07:30:38;6.90;92.20
65179;DHT22;51849;47.476;8.084;2022-11-14T07:33:04;6.90;92.50
65179;DHT22;51849;47.476;8.084;2022-11-14T07:35:29;6.90;92.80
65179;DHT22;51849;47.476;8.084;2022-11-14T07:37:59;6.90;93.20
65179;DHT22;51849;47.476;8.084;2022-11-14T07:40:26;6.90;92.80
65179;DHT22;51849;47.476;8.084;2022-11-14T07:42:56;7.00;93.00
65179;DHT22;51849;47.476;8.084;2022-11-14T07:45:23;6.90;93.10
65179;DHT22;51849;47.476;8.084;2022-11-14T07:47:49;7.00;93.10
65179;DHT22;51849;47.476;8.084;2022-11-14T07:50:14;6.90;93.10
65179;DHT22;51849;47.476;8.084;2022-11-14T07:52:40;6.80;93.10
65179;DHT22;51849;47.476;8.084;2022-11-14T07:55:06;6.80;93.30
65179;DHT22;51849;47.476;8.084;2022-11-14T07:57:35;6.80;93.80
65179;DHT22;51849;47.476;8.084;2022-11-14T08:00:03;6.80;94.20
65179;DHT22;51849;47.476;8.084;2022-11-14T08:02:29;6.70;94.50
65179;DHT22;51849;47.476;8.084;2022-11-14T08:04:57;6.70;94.60
65179;DHT22;51849;47.476;8.084;2022-11-14T08:07:23;6.70;94.60
65179;DHT22;51849;47.476;8.084;2022-11-14T08:09:51;6.80;94.80
65179;DHT22;51849;47.476;8.084;2022-11-14T08:12:16;6.80;94.90
65179;DHT22;51849;47.476;8.084;2022-11-14T08:14:44;6.80;95.20
65179;DHT22;51849;47.476;8.084;2022-11-14T08:17:12;6.80;95.50
65179;DHT22;51849;47.476;8.084;2022-11-14T08:19:40;6.90;95.30
65179;DHT22;51849;47.476;8.084;2022-11-14T08:22:06;7.00;95.20
65179;DHT22;51849;47.476;8.084;2022-11-14T08:24:34;7.00;94.90
65179;DHT22;51849;47.476;8.084;2022-11-14T08:27:00;7.00;94.60
65179;DHT22;51849;47.476;8.084;2022-11-14T08:29:28;7.10;94.60
65179;DHT22;51849;47.476;8.084;2022-11-14T08:31:56;7.00;94.60
65179;DHT22;51849;47.476;8.084;2022-11-14T08:34:21;7.00;94.70
65179;DHT22;51849;47.476;8.084;2022-11-14T08:36:50;7.00;95.20
65179;DHT22;51849;47.476;8.084;2022-11-14T08:39:18;7.00;95.70
65179;DHT22;51849;47.476;8.084;2022-11-14T08:41:46;7.00;95.80
65179;DHT22;51849;47.476;8.084;2022-11-14T08:44:16;7.00;95.90
65179;DHT22;51849;47.476;8.084;2022-11-14T08:46:42;7.00;95.60
65179;DHT22;51849;47.476;8.084;2022-11-14T08:49:08;7.00;95.70
65179;DHT22;51849;47.476;8.084;2022-11-14T08:51:33;7.00;95.70
65179;DHT22;51849;47.476;8.084;2022-11-14T08:53:59;7.10;95.60
65179;DHT22;51849;47.476;8.084;2022-11-14T08:56:24;7.20;95.70
65179;DHT22;51849;47.476;8.084;2022-11-14T08:58:50;7.10;95.70
65179;DHT22;51849;47.476;8.084;2022-11-14T09:01:16;7.20;95.90
65179;DHT22;51849;47.476;8.084;2022-11-14T09:03:41;7.20;95.70
65179;DHT22;51849;47.476;8.084;2022-11-14T09:06:07;7.30;95.70
65179;DHT22;51849;47.476;8.084;2022-11-14T09:08:33;7.30;95.70
65179;DHT22;51849;47.476;8.084;2022-11-14T09:11:03;7.40;95.30
65179;DHT22;51849;47.476;8.084;2022-11-14T09:13:33;7.40;95.30
65179;DHT22;51849;47.476;8.084;2022-11-14T09:15:59;7.40;94.40
65179;DHT22;51849;47.476;8.084;2022-11-14T09:18:30;7.40;94.90
65179;DHT22;51849;47.476;8.084;2022-11-14T09:21:02;7.40;95.20
65179;DHT22;51849;47.476;8.084;2022-11-14T09:23:33;7.50;95.20
65179;DHT22;51849;47.476;8.084;2022-11-14T09:26:05;7.50;95.00
65179;DHT22;51849;47.476;8.084;2022-11-14T09:28:32;7.50;94.90
65179;DHT22;51849;47.476;8.084;2022-11-14T09:31:04;7.60;95.00
65179;DHT22;51849;47.476;8.084;2022-11-14T09:33:35;7.70;95.00
65179;DHT22;51849;47.476;8.084;2022-11-14T09:36:06;7.80;95.10
65179;DHT22;51849;47.476;8.084;2022-11-14T09:38:34;7.80;95.10
65179;DHT22;51849;47.476;8.084;2022-11-14T09:46:38;7.90;95.50
65179;DHT22;51849;47.476;8.084;2022-11-14T09:49:10;7.90;95.40
65179;DHT22;51849;47.476;8.084;2022-11-14T09:51:51;7.90;95.10
65179;DHT22;51849;47.476;8.084;2022-11-14T09:54:23;7.90;95.20
65179;DHT22;51849;47.476;8.084;2022-11-14T09:56:53;7.90;95.50
65179;DHT22;51849;47.476;8.084;2022-11-14T09:59:20;8.00;95.40
65179;DHT22;51849;47.476;8.084;2022-11-14T10:02:12;7.90;95.40
65179;DHT22;51849;47.476;8.084;2022-11-14T10:16:09;7.90;94.60
65179;DHT22;51849;47.476;8.084;2022-11-14T10:27:21;8.00;94.50
65179;DHT22;51849;47.476;8.084;2022-11-14T10:29:57;8.10;94.80
65179;DHT22;51849;47.476;8.084;2022-11-14T10:35:23;8.20;94.80
65179;DHT22;51849;47.476;8.084;2022-11-14T10:38:04;8.20;94.70
65179;DHT22;51849;47.476;8.084;2022-11-14T10:40:40;8.20;94.70
65179;DHT22;51849;47.476;8.084;2022-11-14T10:48:32;8.40;92.60
65179;DHT22;51849;47.476;8.084;2022-11-14T10:54:14;8.60;91.90
65179;DHT22;51849;47.476;8.084;2022-11-14T10:56:22;8.60;91.90
65179;DHT22;51849;47.476;8.084;2022-11-14T10:58:48;8.60;91.60
65179;DHT22;51849;47.476;8.084;2022-11-14T11:04:12;8.70;90.70
65179;DHT22;51849;47.476;8.084;2022-11-14T11:06:47;8.80;87.20
65179;DHT22;51849;47.476;8.084;2022-11-14T11:09:24;8.90;87.10
65179;DHT22;51849;47.476;8.084;2022-11-14T11:12:15;9.00;86.00
65179;DHT22;51849;47.476;8.084;2022-11-14T11:20:29;9.20;85.20
65179;DHT22;51849;47.476;8.084;2022-11-14T11:25:28;9.30;83.40
65179;DHT22;51849;47.476;8.084;2022-11-14T11:30:39;9.20;83.10
65179;DHT22;51849;47.476;8.084;2022-11-14T11:35:47;9.30;84.90
65179;DHT22;51849;47.476;8.084;2022-11-14T11:38:15;9.30;84.40
65179;DHT22;51849;47.476;8.084;2022-11-14T11:40:42;9.30;84.00
65179;DHT22;51849;47.476;8.084;2022-11-14T11:43:12;9.30;83.00
65179;DHT22;51849;47.476;8.084;2022-11-14T11:45:56;9.30;83.00
65179;DHT22;51849;47.476;8.084;2022-11-14T11:48:33;9.30;82.70
65179;DHT22;51849;47.476;8.084;2022-11-14T11:51:05;9.30;82.70
65179;DHT22;51849;47.476;8.084;2022-11-14T11:53:38;9.30;82.70
65179;DHT22;51849;47.476;8.084;2022-11-14T11:56:29;9.30;83.10
65179;DHT22;51849;47.476;8.084;2022-11-14T11:59:58;9.20;82.90
65179;DHT22;51849;47.476;8.084;2022-11-14T12:02:12;9.30;83.00
65179;DHT22;51849;47.476;8.084;2022-11-14T12:04:53;9.40;83.20
65179;DHT22;51849;47.476;8.084;2022-11-14T12:10:21;9.50;82.20
65179;DHT22;51849;47.476;8.084;2022-11-14T12:18:23;9.70;81.40
65179;DHT22;51849;47.476;8.084;2022-11-14T12:21:11;9.80;80.80
65179;DHT22;51849;47.476;8.084;2022-11-14T12:26:56;9.90;80.60
65179;DHT22;51849;47.476;8.084;2022-11-14T12:30:25;9.90;80.50
65179;DHT22;51849;47.476;8.084;2022-11-14T12:32:40;9.90;80.30
65179;DHT22;51849;47.476;8.084;2022-11-14T12:35:13;9.90;80.20
65179;DHT22;51849;47.476;8.084;2022-11-14T12:37:45;9.80;80.70
65179;DHT22;51849;47.476;8.084;2022-11-14T12:40:39;9.80;81.20
65179;DHT22;51849;47.476;8.084;2022-11-14T12:43:10;9.90;81.40
65179;DHT22;51849;47.476;8.084;2022-11-14T12:45:56;9.90;81.20
65179;DHT22;51849;47.476;8.084;2022-11-14T12:50:53;10.00;80.10
65179;DHT22;51849;47.476;8.084;2022-11-14T13:04:50;10.10;79.10
65179;DHT22;51849;47.476;8.084;2022-11-14T13:07:28;10.00;79.00
65179;DHT22;51849;47.476;8.084;2022-11-14T13:10:14;10.00;80.20
65179;DHT22;51849;47.476;8.084;2022-11-14T13:13:11;9.90;79.90
65179;DHT22;51849;47.476;8.084;2022-11-14T13:15:57;9.80;81.60
65179;DHT22;51849;47.476;8.084;2022-11-14T13:27:32;9.80;82.10
65179;DHT22;51849;47.476;8.084;2022-11-14T13:29:59;9.80;82.20
65179;DHT22;51849;47.476;8.084;2022-11-14T13:33:02;9.80;81.80
65179;DHT22;51849;47.476;8.084;2022-11-14T13:52:32;9.90;83.30
65179;DHT22;51849;47.476;8.084;2022-11-14T13:55:04;9.90;83.90
65179;DHT22;51849;47.476;8.084;2022-11-14T14:00:14;9.90;84.80
65179;DHT22;51849;47.476;8.084;2022-11-14T14:05:23;9.90;84.80
65179;DHT22;51849;47.476;8.084;2022-11-14T14:29:50;10.00;83.20
65179;DHT22;51849;47.476;8.084;2022-11-14T14:32:18;10.00;83.50
65179;DHT22;51849;47.476;8.084;2022-11-14T14:34:44;9.90;83.80
65179;DHT22;51849;47.476;8.084;2022-11-14T14:37:23;9.90;84.00
65179;DHT22;51849;47.476;8.084;2022-11-14T14:40:00;9.90;84.40
65179;DHT22;51849;47.476;8.084;2022-11-14T14:42:33;9.90;84.60
65179;DHT22;51849;47.476;8.084;2022-11-14T14:45:09;9.90;83.60
65179;DHT22;51849;47.476;8.084;2022-11-14T14:47:40;9.90;83.30
65179;DHT22;51849;47.476;8.084;2022-11-14T14:50:39;10.00;84.10
65179;DHT22;51849;47.476;8.084;2022-11-14T14:53:16;9.90;83.70
65179;DHT22;51849;47.476;8.084;2022-11-14T14:55:50;10.00;84.10
65179;DHT22;51849;47.476;8.084;2022-11-14T14:58:28;9.90;84.80
65179;DHT22;51849;47.476;8.084;2022-11-14T15:03:25;9.90;85.80
65179;DHT22;51849;47.476;8.084;2022-11-14T15:05:56;9.90;85.60
65179;DHT22;51849;47.476;8.084;2022-11-14T15:08:23;9.80;85.70
65179;DHT22;51849;47.476;8.084;2022-11-14T15:10:53;9.90;85.60
65179;DHT22;51849;47.476;8.084;2022-11-14T15:13:22;9.90;85.90
65179;DHT22;51849;47.476;8.084;2022-11-14T15:15:52;9.80;86.20
65179;DHT22;51849;47.476;8.084;2022-11-14T15:18:22;9.80;86.50
65179;DHT22;51849;47.476;8.084;2022-11-14T15:21:05;9.80;86.90
65179;DHT22;51849;47.476;8.084;2022-11-14T15:23:56;9.70;87.40
65179;DHT22;51849;47.476;8.084;2022-11-14T15:26:26;9.60;87.70
65179;DHT22;51849;47.476;8.084;2022-11-14T15:29:03;9.60;88.50
65179;DHT22;51849;47.476;8.084;2022-11-14T15:31:43;9.60;88.80
65179;DHT22;51849;47.476;8.084;2022-11-14T15:39:40;9.50;87.40
65179;DHT22;51849;47.476;8.084;2022-11-14T15:42:30;9.50;85.20
65179;DHT22;51849;47.476;8.084;2022-11-14T15:44:55;9.60;85.50
65179;DHT22;51849;47.476;8.084;2022-11-14T15:47:24;9.60;86.60
65179;DHT22;51849;47.476;8.084;2022-11-14T15:52:39;9.50;87.70
65179;DHT22;51849;47.476;8.084;2022-11-14T15:55:25;9.50;88.10
65179;DHT22;51849;47.476;8.084;2022-11-14T15:57:51;9.50;88.30
65179;DHT22;51849;47.476;8.084;2022-11-14T16:00:19;9.40;88.30
65179;DHT22;51849;47.476;8.084;2022-11-14T16:02:54;9.40;88.60
65179;DHT22;51849;47.476;8.084;2022-11-14T16:05:23;9.40;88.70
65179;DHT22;51849;47.476;8.084;2022-11-14T16:07:51;9.20;88.30
65179;DHT22;51849;47.476;8.084;2022-11-14T16:10:19;9.10;88.40
65179;DHT22;51849;47.476;8.084;2022-11-14T16:12:46;9.10;88.70
65179;DHT22;51849;47.476;8.084;2022-11-14T16:15:12;9.10;89.10
65179;DHT22;51849;47.476;8.084;2022-11-14T16:17:38;9.00;89.10
65179;DHT22;51849;47.476;8.084;2022-11-14T16:20:09;9.00;89.10
65179;DHT22;51849;47.476;8.084;2022-11-14T16:22:40;9.10;89.30
65179;DHT22;51849;47.476;8.084;2022-11-14T16:25:13;9.00;89.20
65179;DHT22;51849;47.476;8.084;2022-11-14T16:27:45;9.00;89.10
65179;DHT22;51849;47.476;8.084;2022-11-14T16:30:14;8.90;89.50
65179;DHT22;51849;47.476;8.084;2022-11-14T16:32:43;8.90;89.40
65179;DHT22;51849;47.476;8.084;2022-11-14T16:35:14;9.00;87.40
65179;DHT22;51849;47.476;8.084;2022-11-14T16:37:47;8.90;88.10
65179;DHT22;51849;47.476;8.084;2022-11-14T16:40:14;8.90;88.40
65179;DHT22;51849;47.476;8.084;2022-11-14T16:42:39;8.90;88.60
65179;DHT22;51849;47.476;8.084;2022-11-14T16:45:08;8.80;88.70
65179;DHT22;51849;47.476;8.084;2022-11-14T16:47:34;8.70;89.30
65179;DHT22;51849;47.476;8.084;2022-11-14T16:50:02;8.70;89.60
65179;DHT22;51849;47.476;8.084;2022-11-14T16:52:30;8.70;89.90
65179;DHT22;51849;47.476;8.084;2022-11-14T16:54:56;8.70;90.10
65179;DHT22;51849;47.476;8.084;2022-11-14T16:57:22;8.70;90.00
65179;DHT22;51849;47.476;8.084;2022-11-14T16:59:48;8.60;89.90
65179;DHT22;51849;47.476;8.084;2022-11-14T17:02:18;8.70;89.40
65179;DHT22;51849;47.476;8.084;2022-11-14T17:04:44;8.70;89.20
65179;DHT22;51849;47.476;8.084;2022-11-14T17:07:10;8.70;88.90
65179;DHT22;51849;47.476;8.084;2022-11-14T17:09:38;8.70;89.30
65179;DHT22;51849;47.476;8.084;2022-11-14T17:12:09;8.70;89.50
65179;DHT22;51849;47.476;8.084;2022-11-14T17:14:34;8.70;89.70
65179;DHT22;51849;47.476;8.084;2022-11-14T17:17:00;8.70;89.80
65179;DHT22;51849;47.476;8.084;2022-11-14T17:19:26;8.60;89.90
65179;DHT22;51849;47.476;8.084;2022-11-14T17:21:53;8.60;90.00
65179;DHT22;51849;47.476;8.084;2022-11-14T17:24:21;8.60;90.30
65179;DHT22;51849;47.476;8.084;2022-11-14T17:26:47;8.60;90.30
65179;DHT22;51849;47.476;8.084;2022-11-14T17:29:18;8.60;90.50
65179;DHT22;51849;47.476;8.084;2022-11-14T17:31:44;8.60;90.60
65179;DHT22;51849;47.476;8.084;2022-11-14T17:34:10;8.60;90.60
65179;DHT22;51849;47.476;8.084;2022-11-14T17:36:35;8.60;90.50
65179;DHT22;51849;47.476;8.084;2022-11-14T17:39:03;8.60;90.40
65179;DHT22;51849;47.476;8.084;2022-11-14T17:41:29;8.60;90.50
65179;DHT22;51849;47.476;8.084;2022-11-14T17:43:56;8.50;90.50
65179;DHT22;51849;47.476;8.084;2022-11-14T17:46:23;8.50;90.60
65179;DHT22;51849;47.476;8.084;2022-11-14T17:48:53;8.50;90.80
65179;DHT22;51849;47.476;8.084;2022-11-14T17:51:19;8.40;91.10
65179;DHT22;51849;47.476;8.084;2022-11-14T17:53:45;8.40;90.80
65179;DHT22;51849;47.476;8.084;2022-11-14T17:56:14;8.40;90.70
65179;DHT22;51849;47.476;8.084;2022-11-14T17:58:43;8.30;91.00
65179;DHT22;51849;47.476;8.084;2022-11-14T18:01:14;8.30;91.20
65179;DHT22;51849;47.476;8.084;2022-11-14T18:03:42;8.30;91.30
65179;DHT22;51849;47.476;8.084;2022-11-14T18:06:08;8.30;91.10
65179;DHT22;51849;47.476;8.084;2022-11-14T18:08:46;8.30;91.10
65179;DHT22;51849;47.476;8.084;2022-11-14T18:11:12;8.20;91.00
65179;DHT22;51849;47.476;8.084;2022-11-14T18:13:42;8.20;91.20
65179;DHT22;51849;47.476;8.084;2022-11-14T18:16:12;8.10;91.10
65179;DHT22;51849;47.476;8.084;2022-11-14T18:18:43;8.10;91.40
65179;DHT22;51849;47.476;8.084;2022-11-14T18:21:13;8.00;91.40
65179;DHT22;51849;47.476;8.084;2022-11-14T18:23:50;8.00;91.50
65179;DHT22;51849;47.476;8.084;2022-11-14T18:26:20;8.00;91.50
65179;DHT22;51849;47.476;8.084;2022-11-14T18:28:54;7.90;91.80
65179;DHT22;51849;47.476;8.084;2022-11-14T18:31:26;7.90;91.70